Hassler — WTEK — position and weather

sailwx.info

Track history (hours):
 
Tides and Currents Weather Stations Pressure Air Temp Water Temp Dewpoint Dewpoint Depression Visibility Wind Speed Wind Dir Waves Ship Positions

Oceanographic research ship Hassler (USA)

Last reported at 2017-Aug-17 07:31 UTC. Time now 2017-Aug-17 09:46 UTC.
Position N 36°51' W 076°18'.

Length 37 m; draft 3.8 m.

Type: . MMSI: 369970091.

Date/timePositionNaut miles runAvg speedWind from/ knotsBaromVisibWave heightAir tempDewpointWater temp
2017-Aug-17 07:31N 36°51' W 076°18'0 0.0
2017-Aug-17 07:03N 36°51' W 076°18'0 0.0
2017-Aug-17 06:57N 36°51' W 076°18'0 0.0
2017-Aug-17 06:30N 36°51' W 076°18'0 0.0
2017-Aug-17 06:00N 36°51' W 076°18'0 0.0
2017-Aug-17 05:30N 36°51' W 076°18'0 0.0
2017-Aug-17 04:54N 36°51' W 076°18'0 0.0
2017-Aug-17 04:21N 36°51' W 076°18'0 0.0
2017-Aug-17 03:55N 36°51' W 076°18'0 0.0
2017-Aug-17 03:30N 36°51' W 076°18'0 0.0
2017-Aug-17 02:42N 36°51' W 076°18'0 0.0
2017-Aug-17 02:30N 36°51' W 076°18'0 0.0
2017-Aug-17 02:00N 36°51' W 076°18'0 0.0
2017-Aug-17 01:30N 36°51' W 076°18'0 0.0
2017-Aug-17 00:57N 36°51' W 076°18'0 0.0
2017-Aug-17 00:30N 36°51' W 076°18'0 0.0
2017-Aug-16 23:58N 36°51' W 076°18'0 0.0
2017-Aug-16 23:30N 36°51' W 076°18'0 0.0
2017-Aug-16 23:00N 36°51' W 076°18'0 0.0
2017-Aug-16 22:30N 36°51' W 076°18'0 0.0
2017-Aug-16 22:00N 36°51' W 076°18'0 0.0
2017-Aug-16 21:30N 36°51' W 076°18'0 0.0
2017-Aug-16 20:58N 36°51' W 076°18'0 0.0
2017-Aug-16 20:31N 36°51' W 076°18'0 0.0
2017-Aug-16 20:00N 36°51' W 076°18'0 0.0
2017-Aug-16 19:27N 36°51' W 076°18'0 0.0
2017-Aug-16 18:57N 36°51' W 076°18'0 0.0
2017-Aug-16 18:30N 36°51' W 076°18'0 0.0
2017-Aug-16 17:57N 36°51' W 076°18'0 0.0
2017-Aug-16 17:30N 36°51' W 076°18'0 0.0
2017-Aug-16 16:51N 36°51' W 076°18'0 0.0
2017-Aug-16 15:54N 36°51' W 076°18'0 0.0
2017-Aug-16 15:30N 36°51' W 076°18'0 0.0
2017-Aug-16 14:54N 36°51' W 076°18'0 0.0
2017-Aug-16 14:21N 36°51' W 076°18'0 0.0
2017-Aug-16 14:00N 36°51' W 076°18'0 0.0
2017-Aug-16 13:27N 36°51' W 076°18'0 0.0
2017-Aug-16 12:33N 36°51' W 076°18'0 0.0
2017-Aug-16 12:12N 36°51' W 076°18'0 0.0
2017-Aug-16 02:27N 36°51' W 076°18'0 0.0
2017-Aug-15 23:39N 36°51' W 076°18'0 0.0
2017-Aug-15 23:30N 36°51' W 076°18'0 0.0
2017-Aug-15 23:00N 36°51' W 076°18'0 0.0
2017-Aug-15 22:27N 36°51' W 076°18'0 0.0
2017-Aug-15 21:42N 36°51' W 076°18'0 0.0
2017-Aug-15 21:30N 36°51' W 076°18'0 0.0
2017-Aug-15 20:48N 36°51' W 076°18'0 0.0
2017-Aug-15 20:27N 36°51' W 076°18'0 0.0
2017-Aug-15 19:42N 36°51' W 076°18'0 0.0
2017-Aug-15 19:27N 36°51' W 076°18'0 0.0
2017-Aug-15 18:46N 36°51' W 076°18'0 0.0
2017-Aug-15 18:31N 36°51' W 076°18'0 0.0
2017-Aug-15 17:51N 36°51' W 076°18'0 0.0
2017-Aug-15 17:21N 36°51' W 076°18'0 0.0
2017-Aug-15 15:21N 36°51' W 076°18'0 0.0
2017-Aug-15 15:00N 36°51' W 076°18'2 3.4
2017-Aug-15 14:30N 36°52' W 076°20'3 5.9
2017-Aug-15 14:00N 36°55' W 076°20'12 5.4
2017-Aug-15 11:52N 37°02' W 076°09'58 8.2
2017-Aug-15 04:45N 38°00' W 076°13'3 8.7
2017-Aug-15 04:26N 38°03' W 076°14'4 8.7
2017-Aug-15 03:57N 38°07' W 076°15'4 8.4
2017-Aug-15 03:30N 38°10' W 076°17'4 8.2
2017-Aug-15 03:01N 38°14' W 076°18'4 8.1
2017-Aug-15 02:31N 38°18' W 076°19'4 8.1
2017-Aug-15 02:01N 38°22' W 076°21'4 7.9
2017-Aug-15 01:31N 38°26' W 076°23'4 8.2
2017-Aug-15 01:00N 38°30' W 076°25'4 8.2
2017-Aug-15 00:28N 38°34' W 076°26'4 8.4
2017-Aug-15 00:00N 38°38' W 076°26'4 8.6
2017-Aug-14 23:30N 38°42' W 076°26'4 8.9
2017-Aug-14 23:00N 38°46' W 076°26'5 9.0
2017-Aug-14 22:30N 38°51' W 076°25'5 9.4
2017-Aug-14 22:00N 38°55' W 076°24'5 9.6
2017-Aug-14 21:30N 39°00' W 076°23'5 9.4
2017-Aug-14 21:00N 39°05' W 076°24'4 8.9
2017-Aug-14 20:30N 39°09' W 076°25'4 8.3
2017-Aug-14 20:00N 39°12' W 076°29'4 7.0
2017-Aug-14 19:30N 39°13' W 076°33'2 3.4
2017-Aug-14 19:00N 39°12' W 076°35'1 1.2
2017-Aug-14 18:30N 39°12' W 076°34'0 0.2
2017-Aug-14 17:56N 39°12' W 076°34'0 0.0
2017-Aug-14 17:29N 39°12' W 076°34'0 0.0
2017-Aug-14 16:59N 39°12' W 076°34'0 0.0
2017-Aug-14 16:29N 39°12' W 076°34'0 0.0
2017-Aug-14 15:59N 39°12' W 076°34'0 0.0
2017-Aug-14 15:29N 39°12' W 076°34'0 0.0
2017-Aug-14 14:59N 39°12' W 076°34'0 0.0
2017-Aug-14 14:26N 39°12' W 076°34'0 0.0
2017-Aug-14 13:59N 39°12' W 076°34'0 0.0
2017-Aug-14 13:29N 39°12' W 076°34'0 0.0
2017-Aug-14 12:59N 39°12' W 076°34'0 0.0
2017-Aug-14 12:26N 39°12' W 076°34'0 0.0
2017-Aug-14 11:59N 39°12' W 076°34'0 0.0
2017-Aug-14 11:26N 39°12' W 076°34'0 0.0
2017-Aug-14 10:59N 39°12' W 076°34'0 0.0
2017-Aug-14 10:29N 39°12' W 076°34'0 0.0
2017-Aug-14 09:56N 39°12' W 076°34'0 0.0
2017-Aug-14 09:26N 39°12' W 076°34'0 0.0
2017-Aug-14 08:56N 39°12' W 076°34'0 0.0
2017-Aug-14 08:29N 39°12' W 076°34'0 0.0
2017-Aug-14 07:59N 39°12' W 076°34'0 0.0
2017-Aug-14 07:29N 39°12' W 076°34'0 0.0
2017-Aug-14 06:59N 39°12' W 076°34'0 0.0
2017-Aug-14 06:29N 39°12' W 076°34'0 0.0
2017-Aug-14 05:59N 39°12' W 076°34'0 0.0
2017-Aug-14 05:29N 39°12' W 076°34'0 0.0
2017-Aug-14 04:59N 39°12' W 076°34'0 0.0
2017-Aug-14 04:29N 39°12' W 076°34'0 0.0
2017-Aug-14 03:59N 39°12' W 076°34'0 0.0
2017-Aug-14 03:29N 39°12' W 076°34'0 0.0
2017-Aug-14 02:59N 39°12' W 076°34'0 0.0
2017-Aug-14 02:26N 39°12' W 076°34'0 0.0
2017-Aug-14 01:59N 39°12' W 076°34'0 0.0
2017-Aug-14 01:29N 39°12' W 076°34'0 0.0
2017-Aug-12 21:29N 39°12' W 076°34'0 0.0
2017-Aug-12 20:47N 39°12' W 076°34'0 0.0
2017-Aug-12 20:29N 39°12' W 076°34'0 0.0
2017-Aug-12 19:53N 39°12' W 076°34'0 0.0
2017-Aug-12 19:23N 39°12' W 076°34'0 0.0
2017-Aug-12 18:53N 39°12' W 076°34'0 0.0
2017-Aug-12 18:17N 39°12' W 076°34'0 0.0
2017-Aug-12 17:59N 39°12' W 076°34'0 0.0
2017-Aug-12 17:29N 39°12' W 076°34'0 0.0
2017-Aug-12 16:59N 39°12' W 076°34'0 0.0
2017-Aug-12 16:29N 39°12' W 076°34'0 0.0
2017-Aug-12 15:59N 39°12' W 076°34'0 0.0
2017-Aug-12 15:29N 39°12' W 076°34'0 0.0
2017-Aug-12 14:59N 39°12' W 076°34'0 0.0
2017-Aug-12 14:29N 39°12' W 076°34'0 0.0
2017-Aug-12 13:59N 39°12' W 076°34'0 0.0
2017-Aug-12 13:29N 39°12' W 076°34'0 0.0
2017-Aug-12 12:59N 39°12' W 076°34'0 0.0
2017-Aug-12 12:29N 39°12' W 076°34'0 0.0
2017-Aug-12 11:59N 39°12' W 076°34'0 0.0
2017-Aug-12 11:29N 39°12' W 076°34'0 0.0
2017-Aug-11 18:08N 39°12' W 076°34'0 0.1
2017-Aug-11 17:59N 39°12' W 076°34'0 0.0
2017-Aug-11 17:26N 39°12' W 076°34'0 0.0
2017-Aug-11 16:59N 39°12' W 076°34'0 0.0
2017-Aug-11 16:29N 39°12' W 076°34'0 0.0
2017-Aug-11 15:59N 39°12' W 076°34'0 0.0
2017-Aug-11 15:23N 39°12' W 076°34'0 0.0
2017-Aug-11 14:59N 39°12' W 076°34'0 0.0
2017-Aug-11 13:56N 39°12' W 076°34'0 0.0
2017-Aug-11 13:26N 39°12' W 076°34'0 0.0
2017-Aug-11 12:59N 39°12' W 076°34'0 0.0
2017-Aug-11 12:29N 39°12' W 076°34'0 0.0
2017-Aug-11 11:59N 39°12' W 076°34'0 0.0
2017-Aug-11 11:29N 39°12' W 076°34'0 0.0
2017-Aug-11 10:59N 39°12' W 076°34'0 0.0
2017-Aug-11 10:26N 39°12' W 076°34'0 0.0
2017-Aug-11 09:41N 39°12' W 076°34'0 0.0
2017-Aug-11 09:23N 39°12' W 076°34'0 0.0
2017-Aug-11 08:35N 39°12' W 076°34'0 0.0
2017-Aug-11 06:23N 39°12' W 076°34'0 0.0
2017-Aug-10 18:17N 39°12' W 076°34'0 0.0
2017-Aug-10 17:59N 39°12' W 076°34'0 0.0
2017-Aug-10 17:29N 39°12' W 076°34'0 0.0
2017-Aug-10 16:59N 39°12' W 076°34'0 0.0
2017-Aug-10 16:29N 39°12' W 076°34'0 0.0
2017-Aug-10 15:59N 39°12' W 076°34'0 0.0
2017-Aug-10 15:29N 39°12' W 076°34'0 0.0
2017-Aug-10 14:59N 39°12' W 076°34'0 0.0
2017-Aug-10 14:29N 39°12' W 076°34'0 0.0
2017-Aug-10 13:56N 39°12' W 076°34'0 0.0
2017-Aug-10 13:29N 39°12' W 076°34'0 0.0
2017-Aug-10 12:59N 39°12' W 076°34'0 0.0
2017-Aug-10 12:29N 39°12' W 076°34'  
2017-Aug-07 13:45N 39°12' W 076°34'0 0.0
2017-Aug-07 13:25N 39°12' W 076°34'0 0.0
2017-Aug-07 12:50N 39°12' W 076°34'0 0.0
2017-Aug-07 11:05N 39°12' W 076°34'0 0.0
2017-Aug-07 10:35N 39°12' W 076°34'0 0.0
2017-Aug-07 10:25N 39°12' W 076°34'0 0.0
2017-Aug-07 09:10N 39°12' W 076°34'0 0.0
2017-Aug-07 08:55N 39°12' W 076°34'0 0.0
2017-Aug-07 08:30N 39°12' W 076°34'0 0.0
2017-Aug-07 07:35N 39°12' W 076°34'  
Track history (hours):
 
Tides and Currents Weather Stations Pressure Air Temp Water Temp Dewpoint Dewpoint Depression Visibility Wind Speed Wind Dir Waves Ship Positions

Oceanographic research ship Hassler (USA)

Last reported at 2017-Aug-17 07:31 UTC. Time now 2017-Aug-17 09:46 UTC.
Position N 36°51' W 076°18'.

Length 37 m; draft 3.8 m.

Type: . MMSI: 369970091.

Date/timePositionNaut miles runAvg speedWind from/ knotsBaromVisibWave heightAir tempDewpointWater temp
2017-Aug-17 07:31N 36°51' W 076°18'0 0.0
2017-Aug-17 07:03N 36°51' W 076°18'0 0.0
2017-Aug-17 06:57N 36°51' W 076°18'0 0.0
2017-Aug-17 06:30N 36°51' W 076°18'0 0.0
2017-Aug-17 06:00N 36°51' W 076°18'0 0.0
2017-Aug-17 05:30N 36°51' W 076°18'0 0.0
2017-Aug-17 04:54N 36°51' W 076°18'0 0.0
2017-Aug-17 04:21N 36°51' W 076°18'0 0.0
2017-Aug-17 03:55N 36°51' W 076°18'0 0.0
2017-Aug-17 03:30N 36°51' W 076°18'0 0.0
2017-Aug-17 02:42N 36°51' W 076°18'0 0.0
2017-Aug-17 02:30N 36°51' W 076°18'0 0.0
2017-Aug-17 02:00N 36°51' W 076°18'0 0.0
2017-Aug-17 01:30N 36°51' W 076°18'0 0.0
2017-Aug-17 00:57N 36°51' W 076°18'0 0.0
2017-Aug-17 00:30N 36°51' W 076°18'0 0.0
2017-Aug-16 23:58N 36°51' W 076°18'0 0.0
2017-Aug-16 23:30N 36°51' W 076°18'0 0.0
2017-Aug-16 23:00N 36°51' W 076°18'0 0.0
2017-Aug-16 22:30N 36°51' W 076°18'0 0.0
2017-Aug-16 22:00N 36°51' W 076°18'0 0.0
2017-Aug-16 21:30N 36°51' W 076°18'0 0.0
2017-Aug-16 20:58N 36°51' W 076°18'0 0.0
2017-Aug-16 20:31N 36°51' W 076°18'0 0.0
2017-Aug-16 20:00N 36°51' W 076°18'0 0.0
2017-Aug-16 19:27N 36°51' W 076°18'0 0.0
2017-Aug-16 18:57N 36°51' W 076°18'0 0.0
2017-Aug-16 18:30N 36°51' W 076°18'0 0.0
2017-Aug-16 17:57N 36°51' W 076°18'0 0.0
2017-Aug-16 17:30N 36°51' W 076°18'0 0.0
2017-Aug-16 16:51N 36°51' W 076°18'0 0.0
2017-Aug-16 15:54N 36°51' W 076°18'0 0.0
2017-Aug-16 15:30N 36°51' W 076°18'0 0.0
2017-Aug-16 14:54N 36°51' W 076°18'0 0.0
2017-Aug-16 14:21N 36°51' W 076°18'0 0.0
2017-Aug-16 14:00N 36°51' W 076°18'0 0.0
2017-Aug-16 13:27N 36°51' W 076°18'0 0.0
2017-Aug-16 12:33N 36°51' W 076°18'0 0.0
2017-Aug-16 12:12N 36°51' W 076°18'0 0.0
2017-Aug-16 02:27N 36°51' W 076°18'0 0.0
2017-Aug-15 23:39N 36°51' W 076°18'0 0.0
2017-Aug-15 23:30N 36°51' W 076°18'0 0.0
2017-Aug-15 23:00N 36°51' W 076°18'0 0.0
2017-Aug-15 22:27N 36°51' W 076°18'0 0.0
2017-Aug-15 21:42N 36°51' W 076°18'0 0.0
2017-Aug-15 21:30N 36°51' W 076°18'0 0.0
2017-Aug-15 20:48N 36°51' W 076°18'0 0.0
2017-Aug-15 20:27N 36°51' W 076°18'0 0.0
2017-Aug-15 19:42N 36°51' W 076°18'0 0.0
2017-Aug-15 19:27N 36°51' W 076°18'0 0.0
2017-Aug-15 18:46N 36°51' W 076°18'0 0.0
2017-Aug-15 18:31N 36°51' W 076°18'0 0.0
2017-Aug-15 17:51N 36°51' W 076°18'0 0.0
2017-Aug-15 17:21N 36°51' W 076°18'0 0.0
2017-Aug-15 15:21N 36°51' W 076°18'0 0.0
2017-Aug-15 15:00N 36°51' W 076°18'2 3.4
2017-Aug-15 14:30N 36°52' W 076°20'3 5.9
2017-Aug-15 14:00N 36°55' W 076°20'12 5.4
2017-Aug-15 11:52N 37°02' W 076°09'58 8.2
2017-Aug-15 04:45N 38°00' W 076°13'3 8.7
2017-Aug-15 04:26N 38°03' W 076°14'4 8.7
2017-Aug-15 03:57N 38°07' W 076°15'4 8.4
2017-Aug-15 03:30N 38°10' W 076°17'4 8.2
2017-Aug-15 03:01N 38°14' W 076°18'4 8.1
2017-Aug-15 02:31N 38°18' W 076°19'4 8.1
2017-Aug-15 02:01N 38°22' W 076°21'4 7.9
2017-Aug-15 01:31N 38°26' W 076°23'4 8.2
2017-Aug-15 01:00N 38°30' W 076°25'4 8.2
2017-Aug-15 00:28N 38°34' W 076°26'4 8.4
2017-Aug-15 00:00N 38°38' W 076°26'4 8.6
2017-Aug-14 23:30N 38°42' W 076°26'4 8.9
2017-Aug-14 23:00N 38°46' W 076°26'5 9.0
2017-Aug-14 22:30N 38°51' W 076°25'5 9.4
2017-Aug-14 22:00N 38°55' W 076°24'5 9.6
2017-Aug-14 21:30N 39°00' W 076°23'5 9.4
2017-Aug-14 21:00N 39°05' W 076°24'4 8.9
2017-Aug-14 20:30N 39°09' W 076°25'4 8.3
2017-Aug-14 20:00N 39°12' W 076°29'4 7.0
2017-Aug-14 19:30N 39°13' W 076°33'2 3.4
2017-Aug-14 19:00N 39°12' W 076°35'1 1.2
2017-Aug-14 18:30N 39°12' W 076°34'0 0.2
2017-Aug-14 17:56N 39°12' W 076°34'0 0.0
2017-Aug-14 17:29N 39°12' W 076°34'0 0.0
2017-Aug-14 16:59N 39°12' W 076°34'0 0.0
2017-Aug-14 16:29N 39°12' W 076°34'0 0.0
2017-Aug-14 15:59N 39°12' W 076°34'0 0.0
2017-Aug-14 15:29N 39°12' W 076°34'0 0.0
2017-Aug-14 14:59N 39°12' W 076°34'0 0.0
2017-Aug-14 14:26N 39°12' W 076°34'0 0.0
2017-Aug-14 13:59N 39°12' W 076°34'0 0.0
2017-Aug-14 13:29N 39°12' W 076°34'0 0.0
2017-Aug-14 12:59N 39°12' W 076°34'0 0.0
2017-Aug-14 12:26N 39°12' W 076°34'0 0.0
2017-Aug-14 11:59N 39°12' W 076°34'0 0.0
2017-Aug-14 11:26N 39°12' W 076°34'0 0.0
2017-Aug-14 10:59N 39°12' W 076°34'0 0.0
2017-Aug-14 10:29N 39°12' W 076°34'0 0.0
2017-Aug-14 09:56N 39°12' W 076°34'0 0.0
2017-Aug-14 09:26N 39°12' W 076°34'0 0.0
2017-Aug-14 08:56N 39°12' W 076°34'0 0.0
2017-Aug-14 08:29N 39°12' W 076°34'0 0.0
2017-Aug-14 07:59N 39°12' W 076°34'0 0.0
2017-Aug-14 07:29N 39°12' W 076°34'0 0.0
2017-Aug-14 06:59N 39°12' W 076°34'0 0.0
2017-Aug-14 06:29N 39°12' W 076°34'0 0.0
2017-Aug-14 05:59N 39°12' W 076°34'0 0.0
2017-Aug-14 05:29N 39°12' W 076°34'0 0.0
2017-Aug-14 04:59N 39°12' W 076°34'0 0.0
2017-Aug-14 04:29N 39°12' W 076°34'0 0.0
2017-Aug-14 03:59N 39°12' W 076°34'0 0.0
2017-Aug-14 03:29N 39°12' W 076°34'0 0.0
2017-Aug-14 02:59N 39°12' W 076°34'0 0.0
2017-Aug-14 02:26N 39°12' W 076°34'0 0.0
2017-Aug-14 01:59N 39°12' W 076°34'0 0.0
2017-Aug-14 01:29N 39°12' W 076°34'0 0.0
2017-Aug-12 21:29N 39°12' W 076°34'0 0.0
2017-Aug-12 20:47N 39°12' W 076°34'0 0.0
2017-Aug-12 20:29N 39°12' W 076°34'0 0.0
2017-Aug-12 19:53N 39°12' W 076°34'0 0.0
2017-Aug-12 19:23N 39°12' W 076°34'0 0.0
2017-Aug-12 18:53N 39°12' W 076°34'0 0.0
2017-Aug-12 18:17N 39°12' W 076°34'0 0.0
2017-Aug-12 17:59N 39°12' W 076°34'0 0.0
2017-Aug-12 17:29N 39°12' W 076°34'0 0.0
2017-Aug-12 16:59N 39°12' W 076°34'0 0.0
2017-Aug-12 16:29N 39°12' W 076°34'0 0.0
2017-Aug-12 15:59N 39°12' W 076°34'0 0.0
2017-Aug-12 15:29N 39°12' W 076°34'0 0.0
2017-Aug-12 14:59N 39°12' W 076°34'0 0.0
2017-Aug-12 14:29N 39°12' W 076°34'0 0.0
2017-Aug-12 13:59N 39°12' W 076°34'0 0.0
2017-Aug-12 13:29N 39°12' W 076°34'0 0.0
2017-Aug-12 12:59N 39°12' W 076°34'0 0.0
2017-Aug-12 12:29N 39°12' W 076°34'0 0.0
2017-Aug-12 11:59N 39°12' W 076°34'0 0.0
2017-Aug-12 11:29N 39°12' W 076°34'0 0.0
2017-Aug-11 18:08N 39°12' W 076°34'0 0.1
2017-Aug-11 17:59N 39°12' W 076°34'0 0.0
2017-Aug-11 17:26N 39°12' W 076°34'0 0.0
2017-Aug-11 16:59N 39°12' W 076°34'0 0.0
2017-Aug-11 16:29N 39°12' W 076°34'0 0.0
2017-Aug-11 15:59N 39°12' W 076°34'0 0.0
2017-Aug-11 15:23N 39°12' W 076°34'0 0.0
2017-Aug-11 14:59N 39°12' W 076°34'0 0.0
2017-Aug-11 13:56N 39°12' W 076°34'0 0.0
2017-Aug-11 13:26N 39°12' W 076°34'0 0.0
2017-Aug-11 12:59N 39°12' W 076°34'0 0.0
2017-Aug-11 12:29N 39°12' W 076°34'0 0.0
2017-Aug-11 11:59N 39°12' W 076°34'0 0.0
2017-Aug-11 11:29N 39°12' W 076°34'0 0.0
2017-Aug-11 10:59N 39°12' W 076°34'0 0.0
2017-Aug-11 10:26N 39°12' W 076°34'0 0.0
2017-Aug-11 09:41N 39°12' W 076°34'0 0.0
2017-Aug-11 09:23N 39°12' W 076°34'0 0.0
2017-Aug-11 08:35N 39°12' W 076°34'0 0.0
2017-Aug-11 06:23N 39°12' W 076°34'0 0.0
2017-Aug-10 18:17N 39°12' W 076°34'0 0.0
2017-Aug-10 17:59N 39°12' W 076°34'0 0.0
2017-Aug-10 17:29N 39°12' W 076°34'0 0.0
2017-Aug-10 16:59N 39°12' W 076°34'0 0.0
2017-Aug-10 16:29N 39°12' W 076°34'0 0.0
2017-Aug-10 15:59N 39°12' W 076°34'0 0.0
2017-Aug-10 15:29N 39°12' W 076°34'0 0.0
2017-Aug-10 14:59N 39°12' W 076°34'0 0.0
2017-Aug-10 14:29N 39°12' W 076°34'0 0.0
2017-Aug-10 13:56N 39°12' W 076°34'0 0.0
2017-Aug-10 13:29N 39°12' W 076°34'0 0.0
2017-Aug-10 12:59N 39°12' W 076°34'0 0.0
2017-Aug-10 12:29N 39°12' W 076°34'  
2017-Aug-07 13:45N 39°12' W 076°34'0 0.0
2017-Aug-07 13:25N 39°12' W 076°34'0 0.0
2017-Aug-07 12:50N 39°12' W 076°34'0 0.0
2017-Aug-07 11:05N 39°12' W 076°34'0 0.0
2017-Aug-07 10:35N 39°12' W 076°34'0 0.0
2017-Aug-07 10:25N 39°12' W 076°34'0 0.0
2017-Aug-07 09:10N 39°12' W 076°34'0 0.0
2017-Aug-07 08:55N 39°12' W 076°34'0 0.0
2017-Aug-07 08:30N 39°12' W 076°34'0 0.0
2017-Aug-07 07:35N 39°12' W 076°34'  

Dump ship's entire track history